AYPY

Port Moresby Jacksons International Airport

Port Moresby, Papua New Guinea
TAF AYPY 190930Z 1912/2012 17015KT 9999 -R ADZ Z BKN015 BKN030 INTER 1912/1922 4000 +R ADZ Z BKN008
Issued Valid From Valid To
Sep-19 @ 09:30 UTC
(4 hours ago)
Sep-19 @ 12:00 UTC
(2 hours ago)
Sep-20 @ 12:00 UTC
(in 22 hours)
Sep-19 @ 12:00 to Sep-20 @ 12:00
TAF AYPY 190930Z 1912/2012 17015KT 9999 -R ADZ Z BKN015 BKN030
Wind Visibility Clouds Conditions
170° at 15 knots 10,000+ meters
  • Broken at 1,500' AGL
  • Broken at 3,000' AGL
  • Drizzle
Temporary Sep-19 @ 12:00 to Sep-19 @ 22:00
INTER 1912/1922 4000 +R ADZ Z BKN008
Visibility Clouds Conditions
4,007 meters
  • Broken at 800' AGL
  • Drizzle
TAF AYPY 190930Z 1912/2012 17015KT 9999 -R ADZ Z BKN015 BKN030 INTER 1912/1922 4000 +R ADZ Z BKN008
Issued Sep-19 @ 09:30 UTC
(4 hours ago)
Valid From Sep-19 @ 12:00 UTC
(2 hours ago)
Valid To Sep-20 @ 12:00 UTC
(in 22 hours)
Sep-19 @ 12:00 - Sep-20 @ 12:00
Wind Visibility
170° at 15 knots 10,000+ meters
Clouds
  • Broken at 1,500' AGL
  • Broken at 3,000' AGL
Conditions
  • Drizzle
Temporary Sep-19 @ 12:00 - Sep-19 @ 22:00
Clouds
  • Broken at 800' AGL
Conditions
  • Drizzle